createdAt,value
2022-12-19T00:01:55.506Z,10.70
2022-12-19T00:04:22.927Z,12.07
2022-12-19T00:06:50.283Z,13.27
2022-12-19T00:09:17.584Z,12.50
2022-12-19T00:11:44.992Z,10.43
2022-12-19T00:14:12.703Z,11.03
2022-12-19T00:16:40.198Z,10.30
2022-12-19T00:19:07.871Z,10.87
2022-12-19T00:21:35.887Z,11.13
2022-12-19T00:24:08.130Z,11.67
2022-12-19T00:26:48.501Z,9.77
2022-12-19T00:29:16.284Z,10.90
2022-12-19T00:31:44.880Z,11.53
2022-12-19T00:34:15.261Z,9.83
2022-12-19T00:36:42.713Z,9.90
2022-12-19T00:39:11.729Z,9.53
2022-12-19T00:41:41.328Z,10.47
2022-12-19T00:44:17.629Z,9.80
2022-12-19T00:46:52.413Z,10.03
2022-12-19T00:49:20.456Z,10.77
2022-12-19T00:51:47.718Z,9.70
2022-12-19T00:54:15.130Z,10.33
2022-12-19T00:56:43.020Z,10.10
2022-12-19T00:59:10.668Z,9.33
2022-12-19T01:01:40.416Z,10.43
2022-12-19T01:07:02.166Z,9.63
2022-12-19T01:09:32.969Z,10.20
2022-12-19T01:12:18.850Z,10.43
2022-12-19T01:14:48.187Z,9.63
2022-12-19T01:17:15.537Z,10.73
2022-12-19T01:19:44.537Z,10.83
2022-12-19T01:22:13.293Z,10.23
2022-12-19T01:24:40.792Z,9.90
2022-12-19T01:27:08.168Z,9.83
2022-12-19T01:29:40.456Z,9.93
2022-12-19T01:32:19.425Z,10.37
2022-12-19T01:34:46.830Z,9.40
2022-12-19T01:37:17.444Z,9.67
2022-12-19T01:39:44.969Z,9.70
2022-12-19T01:42:23.136Z,10.67
2022-12-19T01:45:06.198Z,10.23
2022-12-19T01:47:36.277Z,10.30
2022-12-19T01:50:04.544Z,10.57
2022-12-19T01:52:32.050Z,9.97
2022-12-19T01:54:59.515Z,9.93
2022-12-19T01:57:27.017Z,10.30
2022-12-19T01:59:56.327Z,9.73
2022-12-19T02:02:24.044Z,9.83
2022-12-19T02:04:51.602Z,10.13
2022-12-19T02:07:20.944Z,9.73
2022-12-19T02:09:50.552Z,10.60
2022-12-19T02:12:25.691Z,9.60
2022-12-19T02:14:54.919Z,9.53
2022-12-19T02:17:26.698Z,9.43
2022-12-19T02:20:10.884Z,9.60
2022-12-19T02:22:51.254Z,9.57
2022-12-19T02:25:30.505Z,9.43
2022-12-19T02:28:10.697Z,9.70
2022-12-19T02:30:56.794Z,10.20
2022-12-19T02:33:44.024Z,9.57
2022-12-19T02:36:27.362Z,8.80
2022-12-19T02:38:58.975Z,9.10
2022-12-19T02:41:46.154Z,8.97
2022-12-19T02:44:22.959Z,9.37
2022-12-19T02:46:51.608Z,10.40
2022-12-19T02:49:26.603Z,10.00
2022-12-19T02:52:09.082Z,9.80
2022-12-19T02:54:36.548Z,9.43
2022-12-19T02:57:11.545Z,9.80
2022-12-19T02:59:58.110Z,9.87
2022-12-19T03:02:45.953Z,10.47
2022-12-19T03:05:28.426Z,9.83
2022-12-19T03:07:58.269Z,9.97
2022-12-19T03:10:33.190Z,9.97
2022-12-19T03:13:03.131Z,9.30
2022-12-19T03:15:30.982Z,9.87
2022-12-19T03:18:00.201Z,9.53
2022-12-19T03:20:27.542Z,9.83
2022-12-19T03:22:54.852Z,9.97
2022-12-19T03:25:23.231Z,9.60
2022-12-19T03:27:50.902Z,9.40
2022-12-19T03:30:18.411Z,9.80
2022-12-19T03:32:47.054Z,11.13
2022-12-19T03:35:22.979Z,10.03
2022-12-19T03:37:51.893Z,8.87
2022-12-19T03:40:20.692Z,10.20
2022-12-19T03:43:07.655Z,9.90
2022-12-19T03:45:54.655Z,9.23
2022-12-19T03:48:30.913Z,10.20
2022-12-19T03:51:05.138Z,10.47
2022-12-19T03:53:45.386Z,9.63
2022-12-19T03:56:32.986Z,9.87
2022-12-19T03:59:08.974Z,9.67
2022-12-19T04:01:37.407Z,10.50
2022-12-19T04:04:05.856Z,10.10
2022-12-19T04:06:34.764Z,10.13
2022-12-19T04:09:02.441Z,10.00
2022-12-19T04:11:31.998Z,10.43
2022-12-19T04:24:23.920Z,9.70
2022-12-19T04:26:52.235Z,9.50
2022-12-19T04:29:20.083Z,10.60
2022-12-19T04:31:47.728Z,11.00
2022-12-19T04:34:18.442Z,9.87
2022-12-19T04:36:45.844Z,10.43
2022-12-19T04:39:13.327Z,10.40
2022-12-19T04:41:40.751Z,10.53
2022-12-19T04:44:08.218Z,10.27
2022-12-19T04:46:35.647Z,9.43
2022-12-19T04:49:03.499Z,10.13
2022-12-19T04:51:31.046Z,9.60
2022-12-19T04:53:58.580Z,10.90
2022-12-19T04:56:26.573Z,10.50
2022-12-19T04:59:02.195Z,10.03
2022-12-19T05:01:30.689Z,9.83
2022-12-19T05:04:04.104Z,10.20
2022-12-19T05:06:32.399Z,10.23
2022-12-19T05:09:00.324Z,10.77
2022-12-19T05:11:28.106Z,10.50
2022-12-19T05:13:55.504Z,10.50
2022-12-19T05:16:23.008Z,11.13
2022-12-19T05:18:50.459Z,11.30
2022-12-19T05:21:17.942Z,10.60
2022-12-19T05:23:45.400Z,11.33
2022-12-19T05:26:13.323Z,10.13
2022-12-19T05:28:41.118Z,11.20
2022-12-19T05:31:10.244Z,10.10
2022-12-19T05:33:38.157Z,10.33
2022-12-19T05:36:06.137Z,10.37
2022-12-19T05:38:33.596Z,10.23
2022-12-19T05:41:01.053Z,10.57
2022-12-19T05:43:28.539Z,10.90
2022-12-19T05:45:55.953Z,10.43
2022-12-19T05:48:23.419Z,11.13
2022-12-19T05:50:51.393Z,10.93
2022-12-19T05:53:24.562Z,10.83
2022-12-19T05:55:53.433Z,10.77
2022-12-19T05:58:20.796Z,11.13
2022-12-19T06:00:48.233Z,10.30
2022-12-19T06:03:15.700Z,11.70
2022-12-19T06:05:43.263Z,11.57
2022-12-19T06:08:11.419Z,10.53
2022-12-19T06:10:38.843Z,11.40
2022-12-19T06:13:06.524Z,11.07
2022-12-19T06:15:33.988Z,12.10
2022-12-19T06:18:01.431Z,11.87
2022-12-19T06:20:28.874Z,11.37
2022-12-19T06:22:56.291Z,12.37
2022-12-19T06:25:23.723Z,11.27
2022-12-19T06:27:51.112Z,13.23
2022-12-19T06:30:18.585Z,12.70
2022-12-19T06:32:46.081Z,11.97
2022-12-19T06:35:13.534Z,11.33
2022-12-19T06:37:40.935Z,13.00
2022-12-19T06:40:28.714Z,13.83
2022-12-19T06:42:56.139Z,11.97
2022-12-19T06:45:23.692Z,11.93
2022-12-19T06:47:51.172Z,12.07
2022-12-19T06:50:18.588Z,11.50
2022-12-19T06:52:45.958Z,11.70
2022-12-19T06:55:13.546Z,12.00
2022-12-19T06:57:46.062Z,11.10
2022-12-19T07:00:14.707Z,11.00
2022-12-19T07:02:50.395Z,11.00
2022-12-19T07:05:17.882Z,11.50
2022-12-19T07:07:45.287Z,11.83
2022-12-19T07:10:12.811Z,11.83
2022-12-19T07:12:40.443Z,12.10
2022-12-19T07:15:08.177Z,12.10
2022-12-19T07:17:35.611Z,11.57
2022-12-19T07:20:03.101Z,12.13
2022-12-19T07:22:32.101Z,11.93
2022-12-19T07:25:00.343Z,12.63
2022-12-19T07:27:35.245Z,15.73
2022-12-19T07:30:03.224Z,15.33
2022-12-19T07:32:30.648Z,14.23
2022-12-19T07:34:58.162Z,13.77
2022-12-19T07:37:25.710Z,12.67
2022-12-19T07:39:53.177Z,12.67
2022-12-19T07:42:21.462Z,12.80
2022-12-19T07:44:48.896Z,12.73
2022-12-19T07:47:16.357Z,13.33
2022-12-19T07:49:43.857Z,12.97
2022-12-19T07:52:11.322Z,13.00
2022-12-19T07:54:38.756Z,13.80
2022-12-19T07:57:06.162Z,12.43
2022-12-19T07:59:39.097Z,12.47
2022-12-19T08:02:07.278Z,12.23
2022-12-19T08:04:37.427Z,12.50
2022-12-19T08:07:04.908Z,12.00
2022-12-19T08:09:32.493Z,12.27
2022-12-19T08:12:00.141Z,12.33
2022-12-19T08:14:27.530Z,12.27
2022-12-19T08:19:42.375Z,12.97
2022-12-19T08:22:09.803Z,14.30
2022-12-19T08:24:38.347Z,13.67
2022-12-19T08:27:05.823Z,15.10
2022-12-19T08:29:35.230Z,14.33
2022-12-19T08:32:02.795Z,16.03
2022-12-19T08:34:30.316Z,13.83
2022-12-19T08:36:57.931Z,14.50
2022-12-19T08:39:25.400Z,13.20
2022-12-19T08:41:53.067Z,13.47
2022-12-19T08:44:20.532Z,13.77
2022-12-19T08:46:50.258Z,12.83
2022-12-19T08:49:18.971Z,13.13
2022-12-19T08:51:46.986Z,13.03
2022-12-19T08:54:14.562Z,13.53
2022-12-19T08:56:45.958Z,13.97
2022-12-19T08:59:15.434Z,14.70
2022-12-19T09:01:49.049Z,13.00
2022-12-19T09:05:49.729Z,14.87
2022-12-19T09:07:04.130Z,13.80
2022-12-19T09:09:34.582Z,13.47
2022-12-19T09:12:01.995Z,13.40
2022-12-19T09:14:33.538Z,14.70
2022-12-19T09:17:00.989Z,13.73
2022-12-19T09:19:31.216Z,12.93
2022-12-19T09:21:58.703Z,13.40
2022-12-19T09:24:26.430Z,13.07
2022-12-19T09:26:53.943Z,12.93
2022-12-19T09:29:22.193Z,13.97
2022-12-19T09:31:56.255Z,12.17
2022-12-19T09:34:33.495Z,12.43
2022-12-19T09:37:06.677Z,13.23
2022-12-19T09:39:35.224Z,13.03
2022-12-19T09:42:20.863Z,12.80
2022-12-19T09:45:08.347Z,13.20
2022-12-19T09:47:38.899Z,13.63
2022-12-19T09:50:11.917Z,13.80
2022-12-19T09:52:41.411Z,13.17
2022-12-19T09:55:17.327Z,14.17
2022-12-19T09:57:53.030Z,16.20
2022-12-19T10:00:21.829Z,16.57
2022-12-19T10:02:54.892Z,17.07
2022-12-19T10:05:50.556Z,14.73
2022-12-19T10:08:20.511Z,14.67
2022-12-19T10:12:42.161Z,14.37
2022-12-19T10:14:04.994Z,14.07
2022-12-19T10:16:32.864Z,14.90
2022-12-19T10:19:11.234Z,13.40
2022-12-19T10:22:17.160Z,13.40
2022-12-19T10:25:09.516Z,14.10
2022-12-19T10:27:43.996Z,13.97
2022-12-19T10:30:27.813Z,14.33
2022-12-19T10:33:03.538Z,13.63
2022-12-19T10:35:51.967Z,14.57
2022-12-19T10:38:27.402Z,15.33
2022-12-19T10:41:04.811Z,13.33
2022-12-19T10:43:44.459Z,12.43
2022-12-19T10:46:18.102Z,13.03
2022-12-19T10:48:45.641Z,12.10
2022-12-19T10:51:22.508Z,11.47
2022-12-19T10:53:57.400Z,12.03
2022-12-19T10:56:28.261Z,11.67
2022-12-19T10:59:02.716Z,12.50
2022-12-19T11:01:37.017Z,13.00
2022-12-19T11:04:23.514Z,12.67
2022-12-19T11:07:03.858Z,11.73
2022-12-19T11:09:41.892Z,12.63
2022-12-19T11:15:48.036Z,12.53
2022-12-19T11:19:30.834Z,12.30
2022-12-19T11:26:02.638Z,12.20
2022-12-19T11:29:19.366Z,12.27
2022-12-19T11:30:34.290Z,12.07
2022-12-19T11:30:38.647Z,13.47
2022-12-19T11:35:19.724Z,12.47
2022-12-19T11:37:58.915Z,12.60
2022-12-19T11:40:29.217Z,11.43
2022-12-19T11:46:02.885Z,11.90
2022-12-19T11:48:30.336Z,12.37
2022-12-19T11:51:04.318Z,12.03
2022-12-19T11:53:41.769Z,12.47
2022-12-19T11:56:16.213Z,13.33
2022-12-19T11:58:47.386Z,11.57
2022-12-19T12:01:42.603Z,11.93
2022-12-19T12:04:18.546Z,11.70
2022-12-19T12:06:51.482Z,11.47
2022-12-19T12:13:04.163Z,11.67
2022-12-19T12:17:07.479Z,12.03
2022-12-19T12:25:05.384Z,12.27
2022-12-19T12:31:09.471Z,11.90
2022-12-19T12:31:21.234Z,11.80
2022-12-19T12:31:39.145Z,10.97
2022-12-19T12:31:45.128Z,11.80
2022-12-19T12:31:46.048Z,11.60
2022-12-19T12:35:54.550Z,11.77
2022-12-19T12:39:02.637Z,8.03
2022-12-19T12:42:03.614Z,13.00
2022-12-19T12:44:44.780Z,12.47
2022-12-19T12:47:26.448Z,13.50
2022-12-19T12:49:59.740Z,13.77
2022-12-19T12:52:30.266Z,10.83
2022-12-19T12:54:58.195Z,12.00
2022-12-19T12:57:28.711Z,14.43
2022-12-19T13:00:17.222Z,13.20
2022-12-19T13:03:07.897Z,13.90
2022-12-19T13:05:35.779Z,13.93
2022-12-19T13:08:23.119Z,13.17
2022-12-19T13:10:58.453Z,13.00
2022-12-19T13:13:44.548Z,15.43
2022-12-19T13:16:38.163Z,9.87
2022-12-19T13:19:28.780Z,13.57
2022-12-19T13:22:07.411Z,13.13
2022-12-19T13:24:41.806Z,13.63
2022-12-19T13:27:21.527Z,13.03
2022-12-19T13:30:01.340Z,12.33
2022-12-19T13:32:31.665Z,12.93
2022-12-19T13:35:26.770Z,12.90
2022-12-19T13:39:57.112Z,12.43
2022-12-19T13:40:44.480Z,13.10
2022-12-19T13:43:30.283Z,12.70
2022-12-19T13:46:01.950Z,12.40
2022-12-19T13:48:31.396Z,13.17
2022-12-19T13:51:01.064Z,12.93
2022-12-19T13:53:30.491Z,13.47
2022-12-19T13:56:05.575Z,12.13
2022-12-19T13:58:44.980Z,12.87
2022-12-19T14:01:21.528Z,12.37
2022-12-19T14:03:50.554Z,13.20
2022-12-19T14:06:21.351Z,12.67
2022-12-19T14:10:02.896Z,13.00
2022-12-19T14:13:40.699Z,12.47
2022-12-19T14:15:06.310Z,12.87
2022-12-19T14:17:39.724Z,12.07
2022-12-19T14:22:09.664Z,12.13
2022-12-19T14:23:06.513Z,12.43
2022-12-19T14:28:20.806Z,13.00
2022-12-19T14:28:30.049Z,12.17
2022-12-19T14:31:00.571Z,10.93
2022-12-19T14:33:43.683Z,11.60
2022-12-19T14:36:25.991Z,11.93
2022-12-19T14:39:25.330Z,12.80
2022-12-19T14:42:02.940Z,12.20
2022-12-19T14:53:51.126Z,12.47
2022-12-19T14:53:51.455Z,11.43
2022-12-19T14:54:21.865Z,7.20
2022-12-19T14:54:23.814Z,13.07
2022-12-19T14:59:02.003Z,11.40
2022-12-19T15:01:34.108Z,12.47
2022-12-19T15:04:50.502Z,11.27
2022-12-19T15:07:07.176Z,12.63
2022-12-19T15:11:06.814Z,11.87
2022-12-19T15:14:52.402Z,12.63
2022-12-19T15:15:45.850Z,5.77
2022-12-19T15:18:36.920Z,11.03
2022-12-19T15:21:06.677Z,11.33
2022-12-19T15:23:34.298Z,11.50
2022-12-19T15:26:05.089Z,11.27
2022-12-19T15:28:44.550Z,11.37
2022-12-19T15:31:21.993Z,11.50
2022-12-19T15:34:23.257Z,12.07
2022-12-19T15:36:37.885Z,11.67
2022-12-19T15:39:05.567Z,10.73
2022-12-19T15:41:36.258Z,11.47
2022-12-19T15:44:08.234Z,12.23
2022-12-19T15:46:35.813Z,12.77
2022-12-19T15:49:03.408Z,11.80
2022-12-19T15:51:30.900Z,11.60
2022-12-19T15:54:22.242Z,11.43
2022-12-19T15:56:51.781Z,10.80
2022-12-19T15:59:37.263Z,10.60
2022-12-19T16:02:14.377Z,11.20
2022-12-19T16:04:42.186Z,10.40
2022-12-19T16:07:14.317Z,11.20
2022-12-19T16:09:41.737Z,11.30
2022-12-19T16:12:12.656Z,11.53
2022-12-19T16:14:40.078Z,11.40
2022-12-19T16:17:11.410Z,12.23
2022-12-19T16:19:38.844Z,11.13
2022-12-19T16:22:14.863Z,11.30
2022-12-19T16:24:42.277Z,10.07
2022-12-19T16:27:11.270Z,11.37
2022-12-19T16:29:41.830Z,11.93
2022-12-19T16:32:12.601Z,11.13
2022-12-19T16:34:40.044Z,11.07
2022-12-19T16:37:07.621Z,10.80
2022-12-19T16:39:36.209Z,12.03
2022-12-19T16:42:06.517Z,11.40
2022-12-19T16:44:35.917Z,11.27
2022-12-19T16:47:03.366Z,11.90
2022-12-19T16:49:31.493Z,11.27
2022-12-19T16:51:58.952Z,11.53
2022-12-19T16:54:26.383Z,11.23
2022-12-19T16:56:54.373Z,11.70
2022-12-19T16:59:23.208Z,11.77
2022-12-19T17:01:51.386Z,12.30
2022-12-19T17:04:23.040Z,8.20
2022-12-19T17:06:52.113Z,11.17
2022-12-19T17:09:20.653Z,10.60
2022-12-19T17:11:49.403Z,11.07
2022-12-19T17:14:23.726Z,11.67
2022-12-19T17:16:54.581Z,10.33
2022-12-19T17:19:28.299Z,11.03
2022-12-19T17:21:55.708Z,9.73
2022-12-19T17:24:23.153Z,11.37
2022-12-19T17:26:50.675Z,11.60
2022-12-19T17:29:19.751Z,13.20
2022-12-19T17:31:47.198Z,11.47
2022-12-19T17:34:15.628Z,11.20
2022-12-19T17:36:43.111Z,11.93
2022-12-19T17:39:21.233Z,11.07
2022-12-19T17:41:49.356Z,11.20
2022-12-19T17:44:17.172Z,11.50
2022-12-19T17:46:45.243Z,11.13
2022-12-19T17:49:17.328Z,10.20
2022-12-19T17:51:50.015Z,10.67
2022-12-19T17:54:17.644Z,10.37
2022-12-19T17:56:45.257Z,10.00
2022-12-19T17:59:12.847Z,9.13
2022-12-19T18:01:43.833Z,10.53
2022-12-19T18:04:14.095Z,10.17
2022-12-19T18:06:42.425Z,10.90
2022-12-19T18:09:24.034Z,9.53
2022-12-19T18:11:52.832Z,9.87
2022-12-19T18:14:21.421Z,9.83
2022-12-19T18:16:51.163Z,9.43
2022-12-19T18:19:23.009Z,9.40
2022-12-19T18:21:50.411Z,9.77
2022-12-19T18:24:17.957Z,10.20
2022-12-19T18:26:45.776Z,9.90
2022-12-19T18:29:13.538Z,10.53
2022-12-19T18:31:48.175Z,10.77
2022-12-19T18:34:22.344Z,10.60
2022-12-19T18:36:49.913Z,9.57
2022-12-19T18:39:20.431Z,10.63
2022-12-19T18:41:48.943Z,9.93
2022-12-19T18:44:16.970Z,10.03
2022-12-19T18:46:44.633Z,10.07
2022-12-19T18:49:16.014Z,9.53
2022-12-19T18:51:44.637Z,9.23
2022-12-19T18:54:17.266Z,9.67
2022-12-19T18:56:45.267Z,9.97
2022-12-19T18:59:12.843Z,9.63
2022-12-19T19:01:42.074Z,9.43
2022-12-19T19:04:13.149Z,8.87
2022-12-19T19:06:46.559Z,9.67
2022-12-19T19:09:18.873Z,9.30
2022-12-19T19:11:57.903Z,9.63
2022-12-19T19:14:25.373Z,9.43
2022-12-19T19:16:52.901Z,11.23
2022-12-19T19:19:20.425Z,9.60
2022-12-19T19:21:47.963Z,10.43
2022-12-19T19:24:20.362Z,10.77
2022-12-19T19:26:47.977Z,10.10
2022-12-19T19:29:15.775Z,10.13
2022-12-19T19:31:44.911Z,9.50
2022-12-19T19:34:33.043Z,10.20
2022-12-19T19:37:01.527Z,9.60
2022-12-19T19:39:30.308Z,8.97
2022-12-19T19:41:57.884Z,9.77
2022-12-19T19:44:25.543Z,9.90
2022-12-19T19:46:53.056Z,10.93
2022-12-19T19:49:23.955Z,9.63
2022-12-19T19:51:54.375Z,9.90
2022-12-19T19:54:25.987Z,9.77
2022-12-19T19:56:53.411Z,9.33
2022-12-19T19:59:21.502Z,10.70
2022-12-19T20:01:49.182Z,9.50
2022-12-19T20:04:16.767Z,9.67
2022-12-19T20:06:44.216Z,9.77
2022-12-19T20:09:11.634Z,9.47
2022-12-19T20:11:39.065Z,9.73
2022-12-19T20:14:06.484Z,10.03
2022-12-19T20:16:33.952Z,9.27
2022-12-19T20:19:01.774Z,10.27
2022-12-19T20:21:30.776Z,10.40
2022-12-19T20:23:58.233Z,9.63
2022-12-19T20:26:25.764Z,10.00
2022-12-19T20:28:53.358Z,10.33
2022-12-19T20:31:22.138Z,10.43
2022-12-19T20:33:50.626Z,29.83
2022-12-19T20:36:18.261Z,13.87
2022-12-19T20:38:45.802Z,21.67
2022-12-19T20:41:13.683Z,15.70
2022-12-19T20:43:41.450Z,12.70
2022-12-19T20:46:16.480Z,11.13
2022-12-19T20:48:45.021Z,11.73
2022-12-19T20:51:13.433Z,11.90
2022-12-19T20:53:41.731Z,11.00
2022-12-19T20:56:10.352Z,11.13
2022-12-19T20:58:38.862Z,10.83
2022-12-19T21:01:11.108Z,10.73
2022-12-19T21:03:38.963Z,11.10
2022-12-19T21:06:07.052Z,10.43
2022-12-19T21:08:35.238Z,10.53
2022-12-19T21:11:02.842Z,10.63
2022-12-19T21:13:30.340Z,10.97
2022-12-19T21:15:59.057Z,10.57
2022-12-19T21:18:27.513Z,10.67
2022-12-19T21:20:55.735Z,10.33
2022-12-19T21:23:25.031Z,12.23
2022-12-19T21:25:52.979Z,11.07
2022-12-19T21:28:21.447Z,10.53
2022-12-19T21:30:55.401Z,10.30
2022-12-19T21:33:22.937Z,9.00
2022-12-19T21:35:50.421Z,10.90
2022-12-19T21:38:17.955Z,10.60
2022-12-19T21:40:45.367Z,9.80
2022-12-19T21:43:12.889Z,10.27
2022-12-19T21:45:40.541Z,9.43
2022-12-19T21:48:08.028Z,8.33
2022-12-19T21:50:35.603Z,9.90
2022-12-19T21:53:03.016Z,10.10
2022-12-19T21:55:30.453Z,10.20
2022-12-19T21:57:57.888Z,10.53
2022-12-19T22:00:25.775Z,9.83
2022-12-19T22:03:12.736Z,9.97
2022-12-19T22:05:40.580Z,10.50
2022-12-19T22:08:10.073Z,10.97
2022-12-19T22:10:39.153Z,9.53
2022-12-19T22:13:06.922Z,10.67
2022-12-19T22:15:36.211Z,10.57
2022-12-19T22:18:03.850Z,10.30
2022-12-19T22:20:31.336Z,10.60
2022-12-19T22:22:58.749Z,8.07
2022-12-19T22:25:26.208Z,11.30
2022-12-19T22:27:55.989Z,9.57
2022-12-19T22:30:23.466Z,9.57
2022-12-19T22:32:50.919Z,10.47
2022-12-19T22:35:18.585Z,10.83
2022-12-19T22:37:46.090Z,9.93
2022-12-19T22:40:13.618Z,10.27
2022-12-19T22:42:41.072Z,10.53
2022-12-19T22:45:08.761Z,11.00
2022-12-19T22:47:36.953Z,10.10
2022-12-19T22:50:04.580Z,10.73
2022-12-19T22:52:31.952Z,10.00
2022-12-19T22:54:59.361Z,10.37
2022-12-19T22:57:26.765Z,10.40
2022-12-19T22:59:54.220Z,10.27
2022-12-19T23:02:21.864Z,10.77
2022-12-19T23:04:49.478Z,10.80
2022-12-19T23:07:17.162Z,11.13
2022-12-19T23:09:44.645Z,11.13
2022-12-19T23:12:12.044Z,11.23
2022-12-19T23:14:39.483Z,10.93
2022-12-19T23:17:06.919Z,10.90
2022-12-19T23:19:34.383Z,11.53
2022-12-19T23:22:01.841Z,10.53
2022-12-19T23:24:29.516Z,10.57
2022-12-19T23:26:56.972Z,9.50
2022-12-19T23:29:25.552Z,10.97
2022-12-19T23:31:53.121Z,11.03
2022-12-19T23:34:20.562Z,10.97
2022-12-19T23:39:35.592Z,10.50
2022-12-19T23:42:03.170Z,10.47
2022-12-19T23:44:30.696Z,10.83
2022-12-19T23:47:02.990Z,10.20
2022-12-19T23:49:31.319Z,11.77
2022-12-19T23:51:58.842Z,11.60
2022-12-19T23:54:26.293Z,10.93
2022-12-19T23:56:53.737Z,11.17
2022-12-19T23:59:21.191Z,11.50
